sensor_id;sensor_type;location;lat;lon;timestamp;pressure;altitude;pressure_sealevel;temperature;humidity
60371;BME280;48550;40.588;49.684;2023-04-01T00:00:18;101483.41;;;2.67;100.00
60371;BME280;48550;40.588;49.684;2023-04-01T00:02:43;101480.28;;;2.72;100.00
60371;BME280;48550;40.588;49.684;2023-04-01T00:05:10;101488.41;;;2.78;100.00
60371;BME280;48550;40.588;49.684;2023-04-01T00:07:40;101483.41;;;2.67;100.00
60371;BME280;48550;40.588;49.684;2023-04-01T00:10:07;101494.38;;;2.72;100.00
60371;BME280;48550;40.588;49.684;2023-04-01T00:12:34;101475.81;;;2.72;100.00
60371;BME280;48550;40.588;49.684;2023-04-01T00:15:00;101480.44;;;2.70;100.00
60371;BME280;48550;40.588;49.684;2023-04-01T00:17:26;101475.50;;;2.83;100.00
60371;BME280;48550;40.588;49.684;2023-04-01T00:19:54;101477.16;;;2.84;100.00
60371;BME280;48550;40.588;49.684;2023-04-01T00:22:20;101488.44;;;2.86;100.00
60371;BME280;48550;40.588;49.684;2023-04-01T00:24:46;101510.47;;;2.87;100.00
60371;BME280;48550;40.588;49.684;2023-04-01T00:27:12;101498.03;;;2.79;100.00
60371;BME280;48550;40.588;49.684;2023-04-01T00:29:37;101500.84;;;2.78;100.00
60371;BME280;48550;40.588;49.684;2023-04-01T00:32:03;101516.91;;;2.76;100.00
60371;BME280;48550;40.588;49.684;2023-04-01T00:34:29;101501.50;;;2.88;100.00
60371;BME280;48550;40.588;49.684;2023-04-01T00:36:55;101511.75;;;2.75;100.00
60371;BME280;48550;40.588;49.684;2023-04-01T00:39:21;101498.66;;;2.73;100.00
60371;BME280;48550;40.588;49.684;2023-04-01T00:41:47;101509.28;;;2.81;100.00
60371;BME280;48550;40.588;49.684;2023-04-01T00:44:24;101530.34;;;2.83;100.00
60371;BME280;48550;40.588;49.684;2023-04-01T00:46:50;101513.28;;;2.85;100.00
60371;BME280;48550;40.588;49.684;2023-04-01T00:49:19;101519.97;;;2.98;100.00
60371;BME280;48550;40.588;49.684;2023-04-01T00:51:48;101506.97;;;2.86;100.00
60371;BME280;48550;40.588;49.684;2023-04-01T00:54:17;101541.59;;;2.85;100.00
60371;BME280;48550;40.588;49.684;2023-04-01T00:57:07;101537.63;;;2.89;100.00
60371;BME280;48550;40.588;49.684;2023-04-01T00:59:37;101527.38;;;2.94;100.00
60371;BME280;48550;40.588;49.684;2023-04-01T01:02:07;101552.63;;;3.06;100.00
60371;BME280;48550;40.588;49.684;2023-04-01T01:04:34;101560.09;;;3.11;100.00
60371;BME280;48550;40.588;49.684;2023-04-01T01:15:11;101560.41;;;3.00;100.00
60371;BME280;48550;40.588;49.684;2023-04-01T01:28:53;101553.28;;;3.08;100.00
60371;BME280;48550;40.588;49.684;2023-04-01T01:31:37;101572.53;;;3.10;100.00
60371;BME280;48550;40.588;49.684;2023-04-01T01:34:12;101564.56;;;3.18;100.00
60371;BME280;48550;40.588;49.684;2023-04-01T01:36:42;101562.09;;;3.17;100.00
60371;BME280;48550;40.588;49.684;2023-04-01T01:39:11;101572.72;;;3.25;100.00
60371;BME280;48550;40.588;49.684;2023-04-01T01:41:39;101577.03;;;3.26;100.00
60371;BME280;48550;40.588;49.684;2023-04-01T01:44:08;101571.88;;;3.25;100.00
60371;BME280;48550;40.588;49.684;2023-04-01T01:46:36;101569.06;;;3.26;100.00
60371;BME280;48550;40.588;49.684;2023-04-01T01:49:04;101563.91;;;3.16;100.00
60371;BME280;48550;40.588;49.684;2023-04-01T01:51:33;101580.31;;;3.20;100.00
60371;BME280;48550;40.588;49.684;2023-04-01T01:53:59;101576.19;;;3.17;100.00
60371;BME280;48550;40.588;49.684;2023-04-01T01:56:27;101580.50;;;3.18;100.00
60371;BME280;48550;40.588;49.684;2023-04-01T01:59:03;101586.13;;;3.24;100.00
60371;BME280;48550;40.588;49.684;2023-04-01T02:01:33;101596.41;;;3.27;100.00
60371;BME280;48550;40.588;49.684;2023-04-01T02:04:00;101592.94;;;3.26;100.00
60371;BME280;48550;40.588;49.684;2023-04-01T02:06:29;101604.38;;;3.35;100.00
60371;BME280;48550;40.588;49.684;2023-04-01T02:09:00;101596.75;;;3.32;100.00
60371;BME280;48550;40.588;49.684;2023-04-01T02:14:07;101606.22;;;3.34;100.00
60371;BME280;48550;40.588;49.684;2023-04-01T02:16:51;101616.00;;;3.34;100.00
60371;BME280;48550;40.588;49.684;2023-04-01T02:19:21;101611.19;;;3.29;100.00
60371;BME280;48550;40.588;49.684;2023-04-01T02:21:56;101620.81;;;3.30;100.00
60371;BME280;48550;40.588;49.684;2023-04-01T02:24:24;101608.53;;;3.37;100.00
60371;BME280;48550;40.588;49.684;2023-04-01T02:26:52;101604.53;;;3.25;100.00
60371;BME280;48550;40.588;49.684;2023-04-01T02:29:20;101603.88;;;3.31;100.00
60371;BME280;48550;40.588;49.684;2023-04-01T02:31:47;101615.50;;;3.38;100.00
60371;BME280;48550;40.588;49.684;2023-04-01T02:34:14;101610.69;;;3.34;100.00
60371;BME280;48550;40.588;49.684;2023-04-01T02:36:40;101603.72;;;3.41;100.00
60371;BME280;48550;40.588;49.684;2023-04-01T02:39:07;101586.66;;;3.43;100.00
60371;BME280;48550;40.588;49.684;2023-04-01T02:41:42;101600.41;;;3.47;100.00
60371;BME280;48550;40.588;49.684;2023-04-01T02:44:09;101600.25;;;3.48;100.00
60371;BME280;48550;40.588;49.684;2023-04-01T02:46:35;101603.91;;;3.47;100.00
60371;BME280;48550;40.588;49.684;2023-04-01T02:49:01;101596.09;;;3.46;100.00
60371;BME280;48550;40.588;49.684;2023-04-01T02:51:27;101587.31;;;3.45;100.00
60371;BME280;48550;40.588;49.684;2023-04-01T02:53:53;101605.75;;;3.55;100.00
60371;BME280;48550;40.588;49.684;2023-04-01T02:56:18;101607.22;;;3.66;100.00
60371;BME280;48550;40.588;49.684;2023-04-01T02:58:45;101602.25;;;3.63;100.00
60371;BME280;48550;40.588;49.684;2023-04-01T03:01:11;101612.38;;;3.67;100.00
60371;BME280;48550;40.588;49.684;2023-04-01T03:03:37;101610.22;;;3.63;100.00
60371;BME280;48550;40.588;49.684;2023-04-01T03:06:10;101604.91;;;3.63;100.00
60371;BME280;48550;40.588;49.684;2023-04-01T03:08:36;101609.56;;;3.61;100.00
60371;BME280;48550;40.588;49.684;2023-04-01T03:11:02;101620.50;;;3.58;100.00
60371;BME280;48550;40.588;49.684;2023-04-01T03:13:28;101612.53;;;3.66;100.00
60371;BME280;48550;40.588;49.684;2023-04-01T03:15:54;101605.25;;;3.68;100.00
60371;BME280;48550;40.588;49.684;2023-04-01T03:18:20;101612.56;;;3.74;100.00
60371;BME280;48550;40.588;49.684;2023-04-01T03:20:46;101601.28;;;3.80;100.00
60371;BME280;48550;40.588;49.684;2023-04-01T03:23:12;101606.94;;;3.85;100.00
60371;BME280;48550;40.588;49.684;2023-04-01T03:25:37;101599.28;;;3.82;100.00
60371;BME280;48550;40.588;49.684;2023-04-01T03:28:03;101605.94;;;3.78;100.00
60371;BME280;48550;40.588;49.684;2023-04-01T03:30:29;101618.72;;;3.91;100.00
60371;BME280;48550;40.588;49.684;2023-04-01T03:32:57;101633.16;;;3.96;100.00
60371;BME280;48550;40.588;49.684;2023-04-01T03:35:23;101610.06;;;3.97;100.00
60371;BME280;48550;40.588;49.684;2023-04-01T03:37:53;101619.53;;;3.91;100.00
60371;BME280;48550;40.588;49.684;2023-04-01T03:40:19;101619.69;;;4.06;100.00
60371;BME280;48550;40.588;49.684;2023-04-01T03:42:44;101617.84;;;4.06;100.00
60371;BME280;48550;40.588;49.684;2023-04-01T03:45:10;101601.41;;;4.11;100.00
60371;BME280;48550;40.588;49.684;2023-04-01T03:47:38;101616.38;;;4.04;100.00
60371;BME280;48550;40.588;49.684;2023-04-01T03:50:04;101613.69;;;4.12;100.00
60371;BME280;48550;40.588;49.684;2023-04-01T03:52:30;101616.53;;;4.10;100.00
60371;BME280;48550;40.588;49.684;2023-04-01T03:54:56;101614.53;;;4.12;100.00
60371;BME280;48550;40.588;49.684;2023-04-01T03:57:22;101611.03;;;4.20;100.00
60371;BME280;48550;40.588;49.684;2023-04-01T03:59:47;101593.56;;;4.26;100.00
60371;BME280;48550;40.588;49.684;2023-04-01T04:02:13;101584.59;;;4.35;100.00
60371;BME280;48550;40.588;49.684;2023-04-01T04:04:39;101602.34;;;4.34;100.00
60371;BME280;48550;40.588;49.684;2023-04-01T04:07:06;101587.22;;;4.43;100.00
60371;BME280;48550;40.588;49.684;2023-04-01T04:09:32;101577.09;;;4.38;100.00
60371;BME280;48550;40.588;49.684;2023-04-01T04:11:59;101557.31;;;4.41;100.00
60371;BME280;48550;40.588;49.684;2023-04-01T04:14:25;101556.50;;;4.40;100.00
60371;BME280;48550;40.588;49.684;2023-04-01T04:16:51;101549.69;;;4.46;100.00
60371;BME280;48550;40.588;49.684;2023-04-01T04:19:17;101542.38;;;4.48;100.00
60371;BME280;48550;40.588;49.684;2023-04-01T04:21:43;101555.19;;;4.75;100.00
60371;BME280;48550;40.588;49.684;2023-04-01T04:24:09;101564.75;;;4.93;100.00
60371;BME280;48550;40.588;49.684;2023-04-01T04:26:35;101578.78;;;5.09;100.00
60371;BME280;48550;40.588;49.684;2023-04-01T04:29:01;101572.19;;;4.97;100.00
60371;BME280;48550;40.588;49.684;2023-04-01T04:31:27;101579.47;;;5.03;100.00
60371;BME280;48550;40.588;49.684;2023-04-01T04:33:53;101571.63;;;5.10;100.00
60371;BME280;48550;40.588;49.684;2023-04-01T04:36:20;101570.75;;;5.18;100.00
60371;BME280;48550;40.588;49.684;2023-04-01T04:38:47;101573.09;;;5.43;100.00
60371;BME280;48550;40.588;49.684;2023-04-01T04:41:15;101591.53;;;5.45;100.00
60371;BME280;48550;40.588;49.684;2023-04-01T04:43:50;101599.19;;;5.48;100.00
60371;BME280;48550;40.588;49.684;2023-04-01T04:46:16;101620.94;;;5.74;100.00
60371;BME280;48550;40.588;49.684;2023-04-01T04:48:41;101623.50;;;5.45;100.00
60371;BME280;48550;40.588;49.684;2023-04-01T04:51:13;101613.91;;;5.36;100.00
60371;BME280;48550;40.588;49.684;2023-04-01T04:53:39;101624.75;;;5.57;100.00
60371;BME280;48550;40.588;49.684;2023-04-01T04:56:05;101617.41;;;5.36;100.00
60371;BME280;48550;40.588;49.684;2023-04-01T04:58:31;101622.44;;;5.54;100.00
60371;BME280;48550;40.588;49.684;2023-04-01T05:00:56;101623.56;;;5.60;100.00
60371;BME280;48550;40.588;49.684;2023-04-01T05:03:22;101626.50;;;5.42;100.00
60371;BME280;48550;40.588;49.684;2023-04-01T05:05:52;101613.03;;;5.43;100.00
60371;BME280;48550;40.588;49.684;2023-04-01T05:08:18;101624.84;;;5.41;100.00
60371;BME280;48550;40.588;49.684;2023-04-01T05:10:43;101630.22;;;5.33;100.00
60371;BME280;48550;40.588;49.684;2023-04-01T05:13:10;101617.22;;;5.38;100.00
60371;BME280;48550;40.588;49.684;2023-04-01T05:15:35;101631.66;;;5.43;100.00
60371;BME280;48550;40.588;49.684;2023-04-01T05:18:02;101646.19;;;5.33;100.00
60371;BME280;48550;40.588;49.684;2023-04-01T05:20:28;101645.16;;;5.42;100.00
60371;BME280;48550;40.588;49.684;2023-04-01T05:22:58;101638.22;;;5.33;100.00
60371;BME280;48550;40.588;49.684;2023-04-01T05:25:25;101652.06;;;5.28;100.00
60371;BME280;48550;40.588;49.684;2023-04-01T05:27:51;101634.03;;;5.38;100.00
60371;BME280;48550;40.588;49.684;2023-04-01T05:30:17;101640.47;;;5.44;100.00
60371;BME280;48550;40.588;49.684;2023-04-01T05:32:43;101628.41;;;5.33;100.00
60371;BME280;48550;40.588;49.684;2023-04-01T05:35:09;101629.47;;;5.47;100.00
60371;BME280;48550;40.588;49.684;2023-04-01T05:37:35;101616.63;;;5.51;100.00
60371;BME280;48550;40.588;49.684;2023-04-01T05:40:01;101630.34;;;5.62;100.00
60371;BME280;48550;40.588;49.684;2023-04-01T05:42:27;101635.38;;;5.57;100.00
60371;BME280;48550;40.588;49.684;2023-04-01T05:44:53;101640.66;;;5.65;100.00
60371;BME280;48550;40.588;49.684;2023-04-01T05:47:19;101653.44;;;5.70;100.00
60371;BME280;48550;40.588;49.684;2023-04-01T05:49:44;101646.81;;;5.66;100.00
60371;BME280;48550;40.588;49.684;2023-04-01T05:52:10;101639.81;;;5.65;100.00
60371;BME280;48550;40.588;49.684;2023-04-01T05:54:36;101568.56;;;5.67;100.00
60371;BME280;48550;40.588;49.684;2023-04-01T05:57:03;101634.50;;;5.65;100.00
60371;BME280;48550;40.588;49.684;2023-04-01T05:59:28;101631.78;;;5.73;100.00
60371;BME280;48550;40.588;49.684;2023-04-01T06:01:56;101631.88;;;5.80;100.00
60371;BME280;48550;40.588;49.684;2023-04-01T06:04:23;101625.47;;;5.89;100.00
60371;BME280;48550;40.588;49.684;2023-04-01T06:06:50;101626.16;;;5.91;100.00
60371;BME280;48550;40.588;49.684;2023-04-01T06:09:26;101616.69;;;6.11;100.00
60371;BME280;48550;40.588;49.684;2023-04-01T06:14:27;101630.03;;;6.26;100.00
60371;BME280;48550;40.588;49.684;2023-04-01T06:19:47;101636.09;;;6.34;100.00
60371;BME280;48550;40.588;49.684;2023-04-01T06:25:36;101623.91;;;6.69;100.00
60371;BME280;48550;40.588;49.684;2023-04-01T06:50:55;101610.44;;;7.92;100.00
60371;BME280;48550;40.588;49.684;2023-04-01T06:56:26;101625.81;;;7.26;100.00
60371;BME280;48550;40.588;49.684;2023-04-01T06:58:57;101615.00;;;7.13;100.00
60371;BME280;48550;40.588;49.684;2023-04-01T07:01:49;101621.63;;;7.39;100.00
60371;BME280;48550;40.588;49.684;2023-04-01T07:04:34;101618.72;;;7.33;100.00
60371;BME280;48550;40.588;49.684;2023-04-01T07:07:28;101618.50;;;7.50;100.00
60371;BME280;48550;40.588;49.684;2023-04-01T07:09:56;101616.84;;;7.70;100.00
60371;BME280;48550;40.588;49.684;2023-04-01T07:12:38;101603.69;;;7.47;100.00
60371;BME280;48550;40.588;49.684;2023-04-01T07:15:33;101601.53;;;7.43;100.00
60371;BME280;48550;40.588;49.684;2023-04-01T07:18:06;101606.91;;;7.64;100.00
60371;BME280;48550;40.588;49.684;2023-04-01T07:20:37;101603.63;;;7.26;100.00
60371;BME280;48550;40.588;49.684;2023-04-01T07:23:25;101607.84;;;7.78;100.00
60371;BME280;48550;40.588;49.684;2023-04-01T07:25:55;101610.06;;;7.95;100.00
60371;BME280;48550;40.588;49.684;2023-04-01T07:28:23;101607.72;;;7.86;100.00
60371;BME280;48550;40.588;49.684;2023-04-01T07:33:52;101600.34;;;8.16;100.00
60371;BME280;48550;40.588;49.684;2023-04-01T07:36:34;101603.88;;;7.95;100.00
60371;BME280;48550;40.588;49.684;2023-04-01T07:39:37;101613.69;;;7.88;100.00
60371;BME280;48550;40.588;49.684;2023-04-01T07:45:22;101577.50;;;7.85;100.00
60371;BME280;48550;40.588;49.684;2023-04-01T07:53:33;101573.75;;;9.38;100.00
60371;BME280;48550;40.588;49.684;2023-04-01T07:56:20;101558.31;;;9.53;100.00
60371;BME280;48550;40.588;49.684;2023-04-01T07:59:11;101570.84;;;9.19;100.00
60371;BME280;48550;40.588;49.684;2023-04-01T08:01:49;101573.81;;;8.90;100.00
60371;BME280;48550;40.588;49.684;2023-04-01T08:04:42;101589.19;;;8.68;100.00
60371;BME280;48550;40.588;49.684;2023-04-01T08:07:20;101599.63;;;8.56;100.00
60371;BME280;48550;40.588;49.684;2023-04-01T08:10:08;101603.03;;;8.44;100.00
60371;BME280;48550;40.588;49.684;2023-04-01T08:18:07;101613.50;;;8.17;100.00
60371;BME280;48550;40.588;49.684;2023-04-01T08:20:47;101612.69;;;7.89;100.00
60371;BME280;48550;40.588;49.684;2023-04-01T08:23:19;101623.81;;;7.92;100.00
60371;BME280;48550;40.588;49.684;2023-04-01T08:28:48;101615.25;;;8.25;100.00
60371;BME280;48550;40.588;49.684;2023-04-01T08:31:36;101602.91;;;8.03;100.00
60371;BME280;48550;40.588;49.684;2023-04-01T08:34:14;101613.16;;;7.99;100.00
60371;BME280;48550;40.588;49.684;2023-04-01T08:36:43;101610.91;;;8.24;100.00
60371;BME280;48550;40.588;49.684;2023-04-01T08:39:29;101620.84;;;8.09;100.00
60371;BME280;48550;40.588;49.684;2023-04-01T08:47:52;101640.31;;;7.75;100.00
60371;BME280;48550;40.588;49.684;2023-04-01T08:50:50;101647.06;;;7.71;100.00
60371;BME280;48550;40.588;49.684;2023-04-01T08:56:57;101640.88;;;7.49;100.00
60371;BME280;48550;40.588;49.684;2023-04-01T09:12:58;101655.66;;;7.66;100.00
60371;BME280;48550;40.588;49.684;2023-04-01T09:20:39;101656.91;;;7.70;100.00
60371;BME280;48550;40.588;49.684;2023-04-01T09:32:02;101645.34;;;7.63;100.00
60371;BME280;48550;40.588;49.684;2023-04-01T09:37:18;101645.84;;;7.73;100.00
60371;BME280;48550;40.588;49.684;2023-04-01T09:49:37;101660.59;;;7.48;100.00
60371;BME280;48550;40.588;49.684;2023-04-01T09:52:18;101654.81;;;7.65;100.00
60371;BME280;48550;40.588;49.684;2023-04-01T09:55:06;101645.59;;;7.68;100.00
60371;BME280;48550;40.588;49.684;2023-04-01T10:22:50;101632.72;;;7.78;100.00
60371;BME280;48550;40.588;49.684;2023-04-01T10:34:34;101589.41;;;7.83;100.00
60371;BME280;48550;40.588;49.684;2023-04-01T10:39:54;101597.72;;;7.94;100.00
60371;BME280;48550;40.588;49.684;2023-04-01T10:54:14;101591.44;;;8.09;100.00
60371;BME280;48550;40.588;49.684;2023-04-01T11:11:08;101590.53;;;8.23;100.00
60371;BME280;48550;40.588;49.684;2023-04-01T11:14:11;101590.38;;;8.03;100.00
60371;BME280;48550;40.588;49.684;2023-04-01T11:22:39;101588.28;;;7.98;100.00
60371;BME280;48550;40.588;49.684;2023-04-01T11:34:01;101583.19;;;7.76;100.00
60371;BME280;48550;40.588;49.684;2023-04-01T11:36:32;101581.84;;;7.65;100.00
60371;BME280;48550;40.588;49.684;2023-04-01T11:42:17;101575.25;;;7.89;100.00
60371;BME280;48550;40.588;49.684;2023-04-01T11:51:24;101568.78;;;8.05;100.00
60371;BME280;48550;40.588;49.684;2023-04-01T11:56:39;101562.00;;;8.02;100.00
60371;BME280;48550;40.588;49.684;2023-04-01T11:59:26;101567.00;;;8.12;100.00
60371;BME280;48550;40.588;49.684;2023-04-01T12:01:59;101558.72;;;8.07;100.00
60371;BME280;48550;40.588;49.684;2023-04-01T12:04:58;101564.72;;;7.81;100.00
60371;BME280;48550;40.588;49.684;2023-04-01T12:18:54;101566.16;;;7.55;100.00
60371;BME280;48550;40.588;49.684;2023-04-01T12:21:58;101567.34;;;7.53;100.00
60371;BME280;48550;40.588;49.684;2023-04-01T12:24:46;101584.53;;;7.65;100.00
60371;BME280;48550;40.588;49.684;2023-04-01T12:32:44;101586.91;;;7.39;100.00
60371;BME280;48550;40.588;49.684;2023-04-01T12:40:36;101597.09;;;7.28;100.00
60371;BME280;48550;40.588;49.684;2023-04-01T12:43:28;101603.75;;;7.18;100.00
60371;BME280;48550;40.588;49.684;2023-04-01T12:46:15;101615.44;;;7.17;100.00
60371;BME280;48550;40.588;49.684;2023-04-01T12:59:40;101628.81;;;7.02;100.00
60371;BME280;48550;40.588;49.684;2023-04-01T13:02:55;101637.47;;;7.04;100.00
60371;BME280;48550;40.588;49.684;2023-04-01T13:08:14;101632.78;;;7.06;100.00
60371;BME280;48550;40.588;49.684;2023-04-01T13:16:24;101643.41;;;6.85;100.00
60371;BME280;48550;40.588;49.684;2023-04-01T13:24:32;101632.44;;;6.80;100.00
60371;BME280;48550;40.588;49.684;2023-04-01T13:27:18;101633.47;;;6.79;100.00
60371;BME280;48550;40.588;49.684;2023-04-01T13:32:59;101635.94;;;6.80;100.00
60371;BME280;48550;40.588;49.684;2023-04-01T13:35:41;101651.50;;;6.77;100.00
60371;BME280;48550;40.588;49.684;2023-04-01T13:44:23;101663.25;;;6.67;100.00
60371;BME280;48550;40.588;49.684;2023-04-01T13:58:31;101638.31;;;6.46;100.00
60371;BME280;48550;40.588;49.684;2023-04-01T14:01:25;101651.84;;;6.44;100.00
60371;BME280;48550;40.588;49.684;2023-04-01T14:07:12;101642.91;;;6.37;100.00
60371;BME280;48550;40.588;49.684;2023-04-01T14:12:36;101652.81;;;6.28;100.00
60371;BME280;48550;40.588;49.684;2023-04-01T14:15:25;101658.34;;;6.27;100.00
60371;BME280;48550;40.588;49.684;2023-04-01T14:26:35;101653.38;;;6.24;100.00
60371;BME280;48550;40.588;49.684;2023-04-01T14:29:22;101649.97;;;6.30;100.00
60371;BME280;48550;40.588;49.684;2023-04-01T14:48:39;101674.81;;;6.30;100.00
60371;BME280;48550;40.588;49.684;2023-04-01T14:54:30;101678.13;;;6.32;100.00
60371;BME280;48550;40.588;49.684;2023-04-01T14:57:13;101681.06;;;6.37;100.00
60371;BME280;48550;40.588;49.684;2023-04-01T14:59:51;101684.47;;;6.31;100.00
60371;BME280;48550;40.588;49.684;2023-04-01T15:05:32;101685.28;;;6.32;100.00
60371;BME280;48550;40.588;49.684;2023-04-01T15:24:14;101693.19;;;6.25;100.00
60371;BME280;48550;40.588;49.684;2023-04-01T15:32:25;101687.38;;;6.22;100.00
60371;BME280;48550;40.588;49.684;2023-04-01T15:35:09;101687.56;;;6.20;100.00
60371;BME280;48550;40.588;49.684;2023-04-01T15:48:20;101675.50;;;6.10;100.00
60371;BME280;48550;40.588;49.684;2023-04-01T15:50:57;101684.59;;;6.15;100.00
60371;BME280;48550;40.588;49.684;2023-04-01T15:56:45;101684.13;;;6.12;100.00
60371;BME280;48550;40.588;49.684;2023-04-01T15:59:39;101686.16;;;6.10;100.00
60371;BME280;48550;40.588;49.684;2023-04-01T16:02:21;101692.97;;;6.12;100.00
60371;BME280;48550;40.588;49.684;2023-04-01T16:07:48;101692.78;;;6.14;100.00
60371;BME280;48550;40.588;49.684;2023-04-01T16:24:40;101688.38;;;6.21;100.00
60371;BME280;48550;40.588;49.684;2023-04-01T16:29:58;101681.03;;;6.23;100.00
60371;BME280;48550;40.588;49.684;2023-04-01T16:37:49;101688.13;;;6.30;100.00
60371;BME280;48550;40.588;49.684;2023-04-01T16:45:43;101677.94;;;6.34;100.00
60371;BME280;48550;40.588;49.684;2023-04-01T16:48:18;101676.19;;;6.41;100.00
60371;BME280;48550;40.588;49.684;2023-04-01T16:50:58;101675.56;;;6.39;100.00
60371;BME280;48550;40.588;49.684;2023-04-01T16:53:45;101673.06;;;6.37;100.00
60371;BME280;48550;40.588;49.684;2023-04-01T16:56:36;101677.94;;;6.34;100.00
60371;BME280;48550;40.588;49.684;2023-04-01T16:59:29;101674.91;;;6.37;100.00
60371;BME280;48550;40.588;49.684;2023-04-01T17:04:37;101667.47;;;6.47;100.00
60371;BME280;48550;40.588;49.684;2023-04-01T17:12:39;101668.13;;;6.49;100.00
60371;BME280;48550;40.588;49.684;2023-04-01T17:18:39;101664.72;;;6.55;100.00
60371;BME280;48550;40.588;49.684;2023-04-01T17:26:59;101655.59;;;6.50;100.00
60371;BME280;48550;40.588;49.684;2023-04-01T17:32:36;101659.09;;;6.50;100.00
60371;BME280;48550;40.588;49.684;2023-04-01T17:35:16;101653.03;;;6.56;100.00
60371;BME280;48550;40.588;49.684;2023-04-01T17:37:57;101654.69;;;6.57;100.00
60371;BME280;48550;40.588;49.684;2023-04-01T17:43:20;101650.09;;;6.51;100.00
60371;BME280;48550;40.588;49.684;2023-04-01T17:45:56;101647.41;;;6.51;100.00
60371;BME280;48550;40.588;49.684;2023-04-01T17:59:52;101644.28;;;6.33;100.00
60371;BME280;48550;40.588;49.684;2023-04-01T18:09:19;101634.25;;;6.20;100.00
60371;BME280;48550;40.588;49.684;2023-04-01T18:17:45;101618.72;;;6.24;100.00
60371;BME280;48550;40.588;49.684;2023-04-01T18:20:31;101620.84;;;6.28;100.00
60371;BME280;48550;40.588;49.684;2023-04-01T18:23:00;101616.25;;;6.37;100.00
60371;BME280;48550;40.588;49.684;2023-04-01T18:25:40;101620.38;;;6.40;100.00
60371;BME280;48550;40.588;49.684;2023-04-01T18:31:19;101617.44;;;6.49;100.00
60371;BME280;48550;40.588;49.684;2023-04-01T18:36:50;101610.34;;;6.42;100.00
60371;BME280;48550;40.588;49.684;2023-04-01T18:39:36;101610.00;;;6.45;100.00
60371;BME280;48550;40.588;49.684;2023-04-01T18:50:55;101608.06;;;6.53;100.00
60371;BME280;48550;40.588;49.684;2023-04-01T18:58:38;101610.72;;;6.53;100.00
60371;BME280;48550;40.588;49.684;2023-04-01T19:01:33;101608.69;;;6.55;100.00
60371;BME280;48550;40.588;49.684;2023-04-01T19:04:27;101609.34;;;6.57;100.00
60371;BME280;48550;40.588;49.684;2023-04-01T19:06:58;101598.69;;;6.57;100.00
60371;BME280;48550;40.588;49.684;2023-04-01T19:09:32;101610.53;;;6.55;100.00
60371;BME280;48550;40.588;49.684;2023-04-01T19:17:58;101602.63;;;6.61;100.00
60371;BME280;48550;40.588;49.684;2023-04-01T19:20:41;101604.19;;;6.56;100.00
60371;BME280;48550;40.588;49.684;2023-04-01T19:25:58;101605.03;;;6.71;100.00
60371;BME280;48550;40.588;49.684;2023-04-01T19:31:57;101593.63;;;6.77;100.00
60371;BME280;48550;40.588;49.684;2023-04-01T19:37:09;101596.09;;;6.79;100.00
60371;BME280;48550;40.588;49.684;2023-04-01T19:43:05;101591.19;;;6.97;100.00
60371;BME280;48550;40.588;49.684;2023-04-01T19:51:09;101583.16;;;6.76;100.00
60371;BME280;48550;40.588;49.684;2023-04-01T19:53:55;101575.22;;;6.67;100.00
60371;BME280;48550;40.588;49.684;2023-04-01T19:56:33;101572.47;;;6.61;100.00
60371;BME280;48550;40.588;49.684;2023-04-01T20:01:50;101572.00;;;6.57;100.00
60371;BME280;48550;40.588;49.684;2023-04-01T20:04:39;101563.91;;;6.51;100.00
60371;BME280;48550;40.588;49.684;2023-04-01T20:07:24;101561.97;;;6.59;100.00
60371;BME280;48550;40.588;49.684;2023-04-01T20:13:18;101555.81;;;6.74;100.00
60371;BME280;48550;40.588;49.684;2023-04-01T20:16:00;101545.34;;;6.72;100.00
60371;BME280;48550;40.588;49.684;2023-04-01T20:18:44;101538.88;;;6.81;100.00
60371;BME280;48550;40.588;49.684;2023-04-01T20:23:43;101540.41;;;6.90;100.00
60371;BME280;48550;40.588;49.684;2023-04-01T20:26:12;101540.03;;;6.93;100.00
60371;BME280;48550;40.588;49.684;2023-04-01T20:28:50;101542.16;;;6.98;100.00
60371;BME280;48550;40.588;49.684;2023-04-01T20:31:24;101533.00;;;7.07;100.00
60371;BME280;48550;40.588;49.684;2023-04-01T20:44:13;101525.81;;;7.08;100.00
60371;BME280;48550;40.588;49.684;2023-04-01T20:49:33;101526.47;;;7.10;100.00
60371;BME280;48550;40.588;49.684;2023-04-01T20:57:23;101519.41;;;7.02;100.00
60371;BME280;48550;40.588;49.684;2023-04-01T21:00:11;101518.38;;;7.03;100.00
60371;BME280;48550;40.588;49.684;2023-04-01T21:08:19;101501.84;;;6.93;100.00
60371;BME280;48550;40.588;49.684;2023-04-01T21:11:08;101503.75;;;6.78;100.00
60371;BME280;48550;40.588;49.684;2023-04-01T21:19:42;101495.13;;;6.61;100.00
60371;BME280;48550;40.588;49.684;2023-04-01T21:22:34;101494.84;;;6.56;100.00
60371;BME280;48550;40.588;49.684;2023-04-01T21:25:27;101494.41;;;6.52;100.00
60371;BME280;48550;40.588;49.684;2023-04-01T21:39:18;101479.03;;;6.54;100.00
60371;BME280;48550;40.588;49.684;2023-04-01T21:42:12;101479.22;;;6.53;100.00
60371;BME280;48550;40.588;49.684;2023-04-01T21:48:00;101487.25;;;6.38;100.00
60371;BME280;48550;40.588;49.684;2023-04-01T21:50:27;101481.28;;;6.36;100.00
60371;BME280;48550;40.588;49.684;2023-04-01T21:58:35;101477.38;;;6.53;
60371;BME280;48550;40.588;49.684;2023-04-01T22:04:07;101484.44;;;6.61;100.00
60371;BME280;48550;40.588;49.684;2023-04-01T22:06:50;101473.03;;;6.67;100.00
60371;BME280;48550;40.588;49.684;2023-04-01T22:09:34;101475.97;;;6.72;100.00
60371;BME280;48550;40.588;49.684;2023-04-01T22:12:12;101470.09;;;6.62;100.00